Time;durP1;ratioP1;P1;durP2;ratioP2;P2;SDS_P1;SDS_P2;PMS_P1;PMS_P2;Temp;Humidity;BMP_temperature;BMP_pressure;BME280_temperature;BME280_humidity;BME280_pressure;Samples;Min_cycle;Max_cycle;Signal;HPM_P1;HPM_P2
2022/07/01 00:00:45;;;;;;;2.10;2.00;;;15.30;99.90;;;;;;4985215;28;20192;-89
2022/07/01 00:03:11;;;;;;;3.37;2.23;;;15.20;99.90;;;;;;4989681;28;20427;-91
2022/07/01 00:05:36;;;;;;;2.17;1.87;;;15.00;99.90;;;;;;4980906;28;20235;-90
2022/07/01 00:08:02;;;;;;;1.90;1.80;;;15.10;99.90;;;;;;4987738;28;20185;-90
2022/07/01 00:10:27;;;;;;;4.10;2.20;;;15.10;99.90;;;;;;4987444;28;20181;-90
2022/07/01 00:12:53;;;;;;;1.40;1.30;;;15.00;99.90;;;;;;4990070;28;20212;-92
2022/07/01 00:15:19;;;;;;;2.10;1.60;;;15.00;99.90;;;;;;4987448;28;20212;-90
2022/07/01 00:17:47;;;;;;;3.17;1.60;;;15.00;99.90;;;;;;4990215;28;20245;-92
2022/07/01 00:20:14;;;;;;;1.33;1.33;;;14.70;99.90;;;;;;4978641;28;20224;-92
2022/07/01 00:22:41;;;;;;;1.07;1.07;;;14.60;99.90;;;;;;4983227;28;20760;-92
2022/07/01 00:25:11;;;;;;;1.60;1.03;;;14.40;99.90;;;;;;4987125;28;20459;-92
2022/07/01 00:27:38;;;;;;;1.30;1.20;;;14.40;99.90;;;;;;4986668;28;20224;-90
2022/07/01 00:30:04;;;;;;;1.23;0.93;;;14.30;99.90;;;;;;4982029;28;20555;-91
2022/07/01 00:32:36;;;;;;;1.37;1.00;;;14.30;99.90;;;;;;4980136;28;20478;-92
2022/07/01 00:35:01;;;;;;;0.80;0.80;;;13.80;99.90;;;;;;4984030;28;20447;-92
2022/07/01 00:37:27;;;;;;;1.00;0.60;;;14.10;99.90;;;;;;4985888;28;20525;-93
2022/07/01 00:39:52;;;;;;;0.93;0.63;;;14.00;99.90;;;;;;4979156;28;20186;-93
2022/07/01 00:42:18;;;;;;;0.93;0.70;;;14.50;99.90;;;;;;4982412;28;20268;-93
2022/07/01 00:44:47;;;;;;;1.03;0.70;;;13.80;99.90;;;;;;4979847;28;20205;-93
2022/07/01 00:47:23;;;;;;;1.37;1.10;;;13.90;99.90;;;;;;4977710;28;20513;-92
2022/07/01 00:49:48;;;;;;;0.70;0.70;;;14.00;99.90;;;;;;4982052;28;20432;-92
2022/07/01 00:52:14;;;;;;;1.30;1.20;;;14.00;99.90;;;;;;4981749;28;20431;-92
2022/07/01 00:54:42;;;;;;;1.33;1.00;;;14.00;99.90;;;;;;4983094;28;20814;-92
2022/07/01 00:57:11;;;;;;;0.93;0.87;;;14.10;99.90;;;;;;4985612;28;20181;-91
2022/07/01 00:59:38;;;;;;;0.90;0.90;;;14.10;99.90;;;;;;4981683;28;20521;-92
2022/07/01 01:02:22;;;;;;;1.70;1.00;;;14.00;99.90;;;;;;4983952;28;21156;-92
2022/07/01 01:04:48;;;;;;;1.20;1.10;;;14.20;99.90;;;;;;4986577;28;20785;-92
2022/07/01 01:07:16;;;;;;;1.70;0.87;;;14.30;99.90;;;;;;4985600;28;20483;-92
2022/07/01 01:09:41;;;;;;;1.80;0.90;;;14.40;99.90;;;;;;4986343;28;20436;-92
2022/07/01 01:12:11;;;;;;;1.47;0.90;;;14.50;99.90;;;;;;4981155;28;20462;-91
2022/07/01 01:15:02;;;;;;;1.17;0.93;;;14.40;99.90;;;;;;4985140;28;20177;-92
2022/07/01 01:17:28;;;;;;;1.27;0.90;;;14.40;99.90;;;;;;4974310;28;20742;-93
2022/07/01 01:19:56;;;;;;;1.40;0.77;;;14.50;99.90;;;;;;4983432;28;20503;-93
2022/07/01 01:22:21;;;;;;;2.47;0.87;;;14.30;99.90;;;;;;4979185;28;20432;-92
2022/07/01 01:24:47;;;;;;;2.23;1.00;;;14.30;99.90;;;;;;4984314;28;20848;-93
2022/07/01 01:27:14;;;;;;;0.67;0.67;;;14.30;99.90;;;;;;4981226;28;20248;-93
2022/07/01 01:29:40;;;;;;;0.97;0.97;;;14.30;99.90;;;;;;4983476;28;20486;-92
2022/07/01 01:32:15;;;;;;;0.80;0.80;;;14.40;99.90;;;;;;4983657;28;20476;-92
2022/07/01 01:34:40;;;;;;;3.03;0.90;;;14.20;99.90;;;;;;4985572;28;20181;-91
2022/07/01 01:37:07;;;;;;;1.40;0.80;;;14.20;99.90;;;;;;4980892;28;20456;-95
2022/07/01 01:39:33;;;;;;;1.00;0.90;;;14.30;99.90;;;;;;4980641;28;21047;-91
2022/07/01 01:42:03;;;;;;;1.10;0.73;;;14.20;99.90;;;;;;4981160;28;20444;-90
2022/07/01 01:44:29;;;;;;;2.20;0.77;;;14.30;99.90;;;;;;4982674;28;20251;-91
2022/07/01 01:46:54;;;;;;;3.10;0.90;;;14.10;99.90;;;;;;4976719;28;20483;-92
2022/07/01 01:49:20;;;;;;;1.00;1.00;;;13.60;99.90;;;;;;4982386;28;20193;-93
2022/07/01 01:51:45;;;;;;;0.70;0.70;;;14.20;99.90;;;;;;4980967;28;20228;-92
2022/07/01 01:54:11;;;;;;;1.13;0.83;;;14.20;99.90;;;;;;4972214;28;20182;-91
2022/07/01 01:56:36;;;;;;;0.80;0.80;;;14.60;99.90;;;;;;4977439;28;20193;-92
2022/07/01 01:59:04;;;;;;;0.93;0.70;;;14.00;99.90;;;;;;4980838;28;20181;-92
2022/07/01 02:01:30;;;;;;;1.17;1.07;;;14.10;99.90;;;;;;4994203;28;20193;-91
2022/07/01 02:03:56;;;;;;;1.07;0.80;;;14.20;99.90;;;;;;5000044;28;20438;-92
2022/07/01 02:06:25;;;;;;;1.27;1.10;;;14.10;99.90;;;;;;4997272;28;20232;-88
2022/07/01 02:09:01;;;;;;;0.80;0.70;;;14.40;99.90;;;;;;4982050;28;20866;-90
2022/07/01 02:11:27;;;;;;;1.77;1.30;;;14.30;99.90;;;;;;4980429;28;20472;-93
2022/07/01 02:13:53;;;;;;;1.93;1.00;;;14.30;99.90;;;;;;4987288;28;20444;-91
2022/07/01 02:16:20;;;;;;;1.40;0.70;;;14.40;99.90;;;;;;4981767;28;20185;-93
2022/07/01 02:18:46;;;;;;;1.03;0.93;;;14.40;99.90;;;;;;4980735;28;20188;-92
2022/07/01 02:21:11;;;;;;;0.90;0.90;;;14.30;99.90;;;;;;4982018;28;20440;-93
2022/07/01 02:23:37;;;;;;;0.80;0.80;;;14.40;99.90;;;;;;4977341;28;20189;-91
2022/07/01 02:26:03;;;;;;;1.63;1.00;;;14.50;99.90;;;;;;4980983;28;20239;-92
2022/07/01 02:28:28;;;;;;;0.90;0.90;;;14.50;99.90;;;;;;4985857;28;20235;-91
2022/07/01 02:30:54;;;;;;;1.00;1.00;;;14.20;99.90;;;;;;4981316;28;20181;-91
2022/07/01 02:33:19;;;;;;;1.80;1.30;;;14.30;99.90;;;;;;4987829;28;20185;-92
2022/07/01 02:35:47;;;;;;;3.80;1.97;;;14.30;99.90;;;;;;5010886;28;20197;-90
2022/07/01 02:38:13;;;;;;;1.20;1.10;;;14.30;99.90;;;;;;5001976;28;20195;-90
2022/07/01 02:40:39;;;;;;;1.47;1.37;;;14.20;99.90;;;;;;4983012;28;20440;-91
2022/07/01 02:43:05;;;;;;;1.73;1.23;;;14.20;99.90;;;;;;4983475;28;20212;-92
2022/07/01 02:45:31;;;;;;;1.30;1.13;;;14.20;99.90;;;;;;4983880;28;20448;-89
2022/07/01 02:47:57;;;;;;;1.20;1.10;;;14.20;99.90;;;;;;4970778;28;20529;-90
2022/07/01 02:50:22;;;;;;;1.40;1.30;;;14.30;99.90;;;;;;4981677;28;20192;-92
2022/07/01 02:52:48;;;;;;;1.93;1.33;;;14.20;99.90;;;;;;4977927;28;20688;-92
2022/07/01 02:55:16;;;;;;;1.07;1.07;;;14.10;99.90;;;;;;4976304;28;20276;-92
2022/07/01 02:57:43;;;;;;;1.30;1.20;;;14.10;99.90;;;;;;4983363;28;20464;-91
2022/07/01 03:00:11;;;;;;;1.30;1.20;;;14.10;99.90;;;;;;4983156;28;20563;-92
2022/07/01 03:02:52;;;;;;;1.20;0.80;;;14.20;99.90;;;;;;4994761;28;20444;-92
2022/07/01 03:05:18;;;;;;;1.03;0.70;;;14.20;99.90;;;;;;4979805;28;20485;-95
2022/07/01 03:07:44;;;;;;;2.67;1.10;;;14.30;99.90;;;;;;4978887;28;20479;-94
2022/07/01 03:10:11;;;;;;;1.00;0.90;;;14.20;99.90;;;;;;4983396;28;20223;-93
2022/07/01 03:12:39;;;;;;;1.40;1.30;;;14.60;99.90;;;;;;4981330;28;20292;-92
2022/07/01 03:15:10;;;;;;;1.10;1.10;;;14.20;99.90;;;;;;4981419;28;21202;-94
2022/07/01 03:17:38;;;;;;;1.43;1.30;;;14.20;99.90;;;;;;4982922;28;20457;-92
2022/07/01 03:20:05;;;;;;;1.53;1.43;;;14.10;99.90;;;;;;4975611;28;20459;-91
2022/07/01 03:22:31;;;;;;;1.67;1.30;;;14.10;99.90;;;;;;4984993;28;20451;-93
2022/07/01 03:24:57;;;;;;;1.63;1.53;;;14.00;99.90;;;;;;4978859;28;20475;-92
2022/07/01 03:27:24;;;;;;;1.53;1.43;;;14.00;99.90;;;;;;4986037;28;20504;-93
2022/07/01 03:29:50;;;;;;;1.80;1.70;;;14.00;99.90;;;;;;4985580;28;20957;-94
2022/07/01 03:32:19;;;;;;;3.80;1.50;;;14.20;99.90;;;;;;4983392;28;20544;-94
2022/07/01 03:34:47;;;;;;;1.80;1.70;;;14.00;99.90;;;;;;4984587;28;20463;-94
2022/07/01 03:37:14;;;;;;;1.40;1.30;;;14.00;99.90;;;;;;4983684;28;20446;-92
2022/07/01 03:39:39;;;;;;;1.57;1.47;;;14.00;99.90;;;;;;4988835;28;20515;-92
2022/07/01 03:42:12;;;;;;;2.03;1.53;;;14.00;99.90;;;;;;4984302;28;20539;-92
2022/07/01 03:44:47;;;;;;;1.90;1.80;;;14.20;99.90;;;;;;4986242;28;20576;-92
2022/07/01 03:47:13;;;;;;;1.90;1.70;;;14.10;99.90;;;;;;4976253;28;20919;-91
2022/07/01 03:49:44;;;;;;;1.60;1.50;;;14.10;99.90;;;;;;5004731;28;20530;-92
2022/07/01 03:52:12;;;;;;;1.90;1.80;;;14.20;99.90;;;;;;4979029;28;20246;-92
2022/07/01 03:54:50;;;;;;;1.97;1.77;;;14.20;99.90;;;;;;5006111;28;20434;-93
2022/07/01 03:57:16;;;;;;;2.00;1.80;;;14.20;99.90;;;;;;4988871;28;20528;-94
2022/07/01 03:59:43;;;;;;;2.40;1.40;;;14.80;99.90;;;;;;4989210;28;20546;-93
2022/07/01 04:02:09;;;;;;;2.73;1.50;;;14.10;99.90;;;;;;4983631;28;20239;-93
2022/07/01 04:04:35;;;;;;;1.63;1.47;;;14.20;99.90;;;;;;4981910;28;22313;-92
2022/07/01 04:07:04;;;;;;;3.63;2.07;;;14.20;99.90;;;;;;4982992;28;20270;-92
2022/07/01 04:09:30;;;;;;;2.73;2.07;;;14.30;99.90;;;;;;4986090;28;20448;-93
2022/07/01 04:11:57;;;;;;;1.83;1.73;;;14.10;99.90;;;;;;4987551;28;20447;-92
2022/07/01 04:14:26;;;;;;;1.83;1.73;;;14.30;99.90;;;;;;4986449;28;20954;-94
2022/07/01 04:16:53;;;;;;;1.70;1.60;;;14.20;99.90;;;;;;4980088;28;20964;-92
2022/07/01 04:19:19;;;;;;;0.90;0.90;;;14.20;99.90;;;;;;4984446;28;20432;-94
2022/07/01 04:24:32;;;;;;;1.40;1.10;;;14.20;99.90;;;;;;5000273;28;20497;-94
2022/07/01 04:26:58;;;;;;;1.00;1.00;;;14.20;99.90;;;;;;4987008;28;20509;-95
2022/07/01 04:29:23;;;;;;;1.93;1.20;;;13.90;99.90;;;;;;4986596;28;20459;-92
2022/07/01 04:31:49;;;;;;;1.27;1.23;;;13.90;99.90;;;;;;4985076;28;20443;-92
2022/07/01 04:34:15;;;;;;;1.43;0.90;;;14.10;99.90;;;;;;4987898;28;20280;-93
2022/07/01 04:36:41;;;;;;;1.27;1.00;;;13.90;99.90;;;;;;4988286;28;20535;-95
2022/07/01 04:39:07;;;;;;;0.90;0.90;;;13.80;99.90;;;;;;4977007;28;20447;-96
2022/07/01 04:44:18;;;;;;;2.70;1.60;;;14.00;99.90;;;;;;5003265;28;20535;-94
2022/07/01 04:46:44;;;;;;;3.33;1.20;;;14.30;99.90;;;;;;4985215;28;20480;-94
2022/07/01 04:49:09;;;;;;;1.37;1.10;;;14.10;99.90;;;;;;5005898;28;20463;-93
2022/07/01 04:51:35;;;;;;;1.00;1.00;;;14.10;99.90;;;;;;4995620;28;20197;-91
2022/07/01 04:54:05;;;;;;;1.00;1.00;;;14.20;99.90;;;;;;5003711;28;20229;-94
2022/07/01 04:56:34;;;;;;;1.30;1.10;;;14.30;99.90;;;;;;4990157;28;20447;-94
2022/07/01 04:59:02;;;;;;;1.00;0.90;;;14.30;99.90;;;;;;5004561;28;20428;-96
2022/07/01 05:01:29;;;;;;;0.80;0.80;;;14.10;99.90;;;;;;4987172;28;20451;-95
2022/07/01 05:03:57;;;;;;;1.30;1.20;;;14.20;99.90;;;;;;5069982;23;20500;-95
2022/07/01 05:06:23;;;;;;;1.30;1.20;;;14.90;99.90;;;;;;4989311;28;20472;-95
2022/07/01 05:08:49;;;;;;;1.53;1.43;;;14.10;99.90;;;;;;4989336;28;20830;-96
2022/07/01 05:11:14;;;;;;;1.83;1.63;;;14.10;99.90;;;;;;4990263;28;20193;-95
2022/07/01 05:13:41;;;;;;;2.67;1.13;;;14.70;99.90;;;;;;5010459;28;20181;-96
2022/07/01 05:16:08;;;;;;;1.40;1.30;;;13.60;99.90;;;;;;4985806;28;20181;-95
2022/07/01 05:24:03;;;;;;;1.27;1.17;;;14.00;99.90;;;;;;4993776;28;20479;-95
2022/07/01 05:26:29;;;;;;;2.20;1.33;;;13.90;99.90;;;;;;4986865;28;20495;-96
2022/07/01 05:28:54;;;;;;;1.50;1.40;;;13.80;99.90;;;;;;4980866;28;20185;-92
2022/07/01 05:31:21;;;;;;;1.90;1.13;;;13.80;99.90;;;;;;4980391;28;21811;-94
2022/07/01 05:33:47;;;;;;;0.90;0.90;;;13.80;99.90;;;;;;4982308;28;20313;-91
2022/07/01 05:36:13;;;;;;;1.37;1.03;;;13.90;99.90;;;;;;4982738;28;20780;-96
2022/07/01 05:38:39;;;;;;;1.00;0.90;;;13.90;99.90;;;;;;4979414;28;21257;-96
2022/07/01 05:41:06;;;;;;;1.33;1.20;;;14.20;99.90;;;;;;4986131;28;20451;-95
2022/07/01 05:43:31;;;;;;;1.70;1.60;;;14.00;99.90;;;;;;4995209;28;20448;-96
2022/07/01 05:45:57;;;;;;;1.40;1.30;;;14.00;99.90;;;;;;5009986;28;20507;-96
2022/07/01 05:48:23;;;;;;;0.90;0.90;;;13.80;99.90;;;;;;5009846;28;20201;-93
2022/07/01 05:50:52;;;;;;;1.60;0.93;;;13.70;99.90;;;;;;5006248;28;20444;-94
2022/07/01 05:53:18;;;;;;;1.10;0.97;;;13.80;99.90;;;;;;4996633;28;20217;-92
2022/07/01 05:55:43;;;;;;;1.10;0.90;;;13.80;99.90;;;;;;4987655;28;20890;-94
2022/07/01 05:58:13;;;;;;;2.60;1.10;;;14.10;99.90;;;;;;4981756;28;20177;-94
2022/07/01 06:00:41;;;;;;;1.20;1.10;;;13.70;99.90;;;;;;4983225;28;20189;-94
2022/07/01 06:03:07;;;;;;;1.30;1.20;;;13.80;99.90;;;;;;4988462;28;20459;-91
2022/07/01 06:05:33;;;;;;;1.10;1.00;;;13.70;99.90;;;;;;4987328;28;22109;-92
2022/07/01 06:07:58;;;;;;;1.00;1.00;;;13.70;99.90;;;;;;4982315;28;20479;-93
2022/07/01 06:10:24;;;;;;;1.10;1.00;;;13.90;99.90;;;;;;4983235;28;20169;-91
2022/07/01 06:12:50;;;;;;;2.60;1.17;;;13.80;99.90;;;;;;4986603;28;20185;-92
2022/07/01 06:15:15;;;;;;;1.60;1.30;;;13.80;99.90;;;;;;4985802;28;20310;-94
2022/07/01 06:17:41;;;;;;;2.40;1.37;;;13.90;99.90;;;;;;4983841;28;20247;-92
2022/07/01 06:20:08;;;;;;;1.37;1.27;;;14.30;99.90;;;;;;4979272;28;20639;-93
2022/07/01 06:22:34;;;;;;;1.30;1.10;;;14.20;99.90;;;;;;4986180;28;20185;-96
2022/07/01 06:25:01;;;;;;;1.90;0.97;;;14.20;99.90;;;;;;4988033;28;20854;-96
2022/07/01 06:27:26;;;;;;;1.63;1.00;;;14.50;99.90;;;;;;4988624;28;20833;-96
2022/07/01 06:29:52;;;;;;;2.87;1.07;;;14.40;99.90;;;;;;4992721;28;20530;-96
2022/07/01 06:32:19;;;;;;;0.90;0.90;;;14.50;99.90;;;;;;4998283;28;20224;-95
2022/07/01 06:34:44;;;;;;;0.97;0.90;;;14.50;99.90;;;;;;4999917;28;20432;-95
2022/07/01 06:37:11;;;;;;;0.90;0.90;;;14.50;99.90;;;;;;5001433;28;20444;-96
2022/07/01 06:39:36;;;;;;;1.27;1.00;;;15.10;99.90;;;;;;5005725;28;20450;-96
2022/07/01 06:42:02;;;;;;;1.47;0.90;;;14.80;99.90;;;;;;5002677;28;20443;-95
2022/07/01 06:44:28;;;;;;;1.47;1.07;;;15.00;99.90;;;;;;4990829;28;20196;-94
2022/07/01 06:47:08;;;;;;;1.20;1.10;;;14.80;99.90;;;;;;4986780;28;20480;-94
2022/07/01 06:52:08;;;;;;;1.50;1.30;;;14.80;99.90;;;;;;4978992;28;20486;-96
2022/07/01 06:54:37;;;;;;;2.57;1.43;;;14.70;99.90;;;;;;4967797;28;20449;-94
2022/07/01 06:57:04;;;;;;;2.40;1.00;;;14.50;99.90;;;;;;4968044;28;20189;-91
2022/07/01 06:59:29;;;;;;;1.80;1.60;;;14.70;99.90;;;;;;4966877;28;20460;-93
2022/07/01 07:01:55;;;;;;;2.30;1.40;;;14.60;99.90;;;;;;4970398;28;20452;-95
2022/07/01 07:04:38;;;;;;;1.60;1.43;;;14.70;99.90;;;;;;4979018;28;20216;-96
2022/07/01 07:07:05;;;;;;;1.60;1.43;;;14.70;99.90;;;;;;4979256;28;20695;-93
2022/07/01 07:09:31;;;;;;;1.63;1.53;;;14.70;99.90;;;;;;4972659;28;20472;-95
2022/07/01 07:11:56;;;;;;;1.90;1.70;;;14.50;99.90;;;;;;4970113;28;20437;-93
2022/07/01 07:14:22;;;;;;;2.50;1.50;;;14.40;99.90;;;;;;4972153;28;20181;-95
2022/07/01 07:16:47;;;;;;;1.77;1.67;;;14.90;99.90;;;;;;4979489;28;20190;-94
2022/07/01 07:19:13;;;;;;;1.63;1.53;;;14.60;99.90;;;;;;4974374;28;20648;-95
2022/07/01 07:21:38;;;;;;;1.30;1.20;;;14.10;99.90;;;;;;4977744;28;20185;-95
2022/07/01 07:24:04;;;;;;;1.47;1.20;;;14.30;99.90;;;;;;4984862;28;20538;-96
2022/07/01 07:26:31;;;;;;;2.67;2.00;;;14.40;99.90;;;;;;4990423;28;20675;-96
2022/07/01 07:28:57;;;;;;;1.73;1.33;;;14.60;99.90;;;;;;4984543;28;20475;-96
2022/07/01 07:31:23;;;;;;;1.80;1.70;;;14.50;99.90;;;;;;4988275;28;21025;-96
2022/07/01 07:33:51;;;;;;;1.73;1.63;;;14.70;99.90;;;;;;4974289;28;20223;-94
2022/07/01 07:36:19;;;;;;;2.20;1.30;;;14.80;99.90;;;;;;4971455;28;20182;-93
2022/07/01 07:38:44;;;;;;;1.83;1.27;;;14.60;99.90;;;;;;4974554;28;20440;-96
2022/07/01 07:41:43;;;;;;;2.00;1.80;;;14.80;99.90;;;;;;4982086;28;20178;-95
2022/07/01 07:44:16;;;;;;;1.80;1.67;;;14.70;99.90;;;;;;4978308;28;20316;-92
2022/07/01 07:47:03;;;;;;;1.43;1.33;;;14.40;99.90;;;;;;4983326;28;20500;-93
2022/07/01 07:49:29;;;;;;;1.53;1.43;;;14.70;99.90;;;;;;4982373;28;20503;-94
2022/07/01 07:51:55;;;;;;;1.47;0.90;;;14.90;99.90;;;;;;4974912;28;20814;-94
2022/07/01 07:54:21;;;;;;;1.10;1.00;;;14.20;99.90;;;;;;4970960;28;20452;-95
2022/07/01 07:56:46;;;;;;;1.40;1.30;;;14.60;99.90;;;;;;4971620;28;20178;-94
2022/07/01 07:59:12;;;;;;;1.63;1.20;;;16.00;99.90;;;;;;4990595;28;20233;-94
2022/07/01 08:01:43;;;;;;;2.03;1.37;;;14.70;99.90;;;;;;4987215;28;20185;-96
2022/07/01 08:04:09;;;;;;;1.60;1.50;;;14.90;99.90;;;;;;4986946;28;20441;-94
2022/07/01 09:01:23;;;;;;;2.27;1.90;;;14.80;99.90;;;;;;5107595;23;20487;-95
2022/07/01 09:11:35;;;;;;;1.90;1.80;;;15.40;99.90;;;;;;4983101;28;20488;-95
2022/07/01 09:14:19;;;;;;;2.47;2.00;;;15.80;99.90;;;;;;4960486;28;20460;-96
2022/07/01 09:16:58;;;;;;;1.80;1.70;;;15.50;99.90;;;;;;4967968;28;20453;-95
2022/07/01 09:19:24;;;;;;;2.10;1.60;;;15.50;99.90;;;;;;4985448;28;20430;-96
2022/07/01 09:22:04;;;;;;;2.07;1.60;;;15.30;99.90;;;;;;4985573;28;21645;-95
2022/07/01 09:24:54;;;;;;;3.37;2.30;;;15.40;99.90;;;;;;5391775;23;20570;-96
2022/07/01 09:27:28;;;;;;;2.53;2.33;;;15.80;99.90;;;;;;5104720;23;20543;-96
2022/07/01 09:30:17;;;;;;;3.63;3.40;;;16.70;99.90;;;;;;5022679;28;20442;-96
2022/07/01 09:33:28;;;;;;;4.70;2.23;;;15.50;99.90;;;;;;5012396;28;20435;-96
2022/07/01 09:35:57;;;;;;;1.70;1.40;;;17.30;99.90;;;;;;5313029;23;20501;-96
2022/07/01 09:38:26;;;;;;;1.43;1.33;;;14.80;99.90;;;;;;5012337;28;20442;-96
2022/07/01 09:40:56;;;;;;;1.77;1.67;;;14.70;99.90;;;;;;5015506;28;21407;-96
2022/07/01 09:43:29;;;;;;;4.60;1.60;;;15.60;99.90;;;;;;5021862;28;20439;-96
2022/07/01 09:45:58;;;;;;;3.07;1.63;;;14.60;99.90;;;;;;5012674;28;20932;-96
2022/07/01 09:58:46;;;;;;;2.13;2.03;;;14.90;99.90;;;;;;5160603;23;20903;-96
2022/07/01 10:06:37;;;;;;;1.67;1.57;;;15.00;99.90;;;;;;5267436;23;20508;-95
2022/07/01 10:09:41;;;;;;;2.07;1.87;;;15.20;99.90;;;;;;5023706;28;20492;-93
2022/07/01 10:12:25;;;;;;;1.73;1.43;;;15.10;99.90;;;;;;5528553;23;20538;-96
2022/07/01 10:14:52;;;;;;;2.73;2.47;;;15.70;99.90;;;;;;5049955;28;20461;-93
2022/07/01 10:17:42;;;;;;;2.80;1.83;;;16.40;99.90;;;;;;5042327;28;20445;-93
2022/07/01 10:20:19;;;;;;;2.57;2.07;;;15.00;99.90;;;;;;5039800;28;20434;-95
2022/07/01 10:22:46;;;;;;;1.90;1.80;;;14.60;99.90;;;;;;5044197;28;20460;-94
2022/07/01 10:25:30;;;;;;;2.17;1.87;;;14.50;99.90;;;;;;5051151;28;20426;-96
2022/07/01 10:28:12;;;;;;;1.80;1.70;;;14.70;99.90;;;;;;5059148;28;20442;-96
2022/07/01 10:30:56;;;;;;;2.60;2.40;;;14.90;99.90;;;;;;5062113;28;20440;-96
2022/07/01 10:33:37;;;;;;;2.07;1.90;;;15.40;99.90;;;;;;5067422;28;20437;-96
2022/07/01 10:38:55;;;;;;;1.83;1.73;;;16.30;99.90;;;;;;5003050;28;20476;-96
2022/07/01 10:41:25;;;;;;;2.23;2.03;;;18.20;99.90;;;;;;4998428;28;20527;-95
2022/07/01 10:43:53;;;;;;;1.80;1.70;;;17.80;99.90;;;;;;4990896;28;20476;-96
2022/07/01 10:47:00;;;;;;;1.80;1.60;;;17.00;99.90;;;;;;4999849;28;20533;-96
2022/07/01 10:49:40;;;;;;;1.90;1.67;;;16.40;99.90;;;;;;4993140;28;20448;-96
2022/07/01 10:52:07;;;;;;;1.70;1.60;;;16.70;99.90;;;;;;5007126;28;20464;-96
2022/07/01 10:54:39;;;;;;;1.60;1.50;;;16.70;99.90;;;;;;4991374;28;22062;-96
2022/07/01 10:57:20;;;;;;;2.03;1.83;;;16.60;99.90;;;;;;5010441;28;20865;-96
2022/07/01 10:59:48;;;;;;;1.77;1.67;;;16.70;99.90;;;;;;5011884;28;20770;-96
2022/07/01 11:02:26;;;;;;;1.63;1.47;;;16.40;99.90;;;;;;4992830;28;22956;-96
2022/07/01 11:04:55;;;;;;;2.60;1.77;;;16.50;99.90;;;;;;5019937;28;20480;-96
2022/07/01 11:07:24;;;;;;;1.53;1.43;;;16.60;99.90;;;;;;5003102;28;20472;-96
2022/07/01 11:10:14;;;;;;;2.83;2.40;;;16.50;99.90;;;;;;4988841;28;20468;-93
2022/07/01 11:12:44;;;;;;;2.10;1.93;;;17.50;99.90;;;;;;4991552;28;20444;-94
2022/07/01 11:15:10;;;;;;;2.60;1.50;;;17.10;99.90;;;;;;4988770;28;20522;-92
2022/07/01 11:17:42;;;;;;;2.60;2.40;;;17.10;99.90;;;;;;4990343;28;20491;-92
2022/07/01 11:20:08;;;;;;;1.80;1.70;;;17.80;99.90;;;;;;4984700;28;20881;-92
2022/07/01 11:22:35;;;;;;;1.80;1.40;;;17.80;99.90;;;;;;5002852;28;20447;-96
2022/07/01 11:25:17;;;;;;;1.60;1.50;;;18.50;99.90;;;;;;4994167;28;20523;-96
2022/07/01 11:27:52;;;;;;;1.50;1.40;;;18.40;99.90;;;;;;5024379;28;20479;-96
2022/07/01 11:30:24;;;;;;;1.70;1.40;;;17.70;99.90;;;;;;4994943;28;20440;-96
2022/07/01 11:32:53;;;;;;;1.10;1.00;;;17.40;99.90;;;;;;4998953;28;20476;-95
2022/07/01 11:41:06;;;;;;;2.00;1.23;;;17.60;99.90;;;;;;4987893;28;21074;-96
2022/07/01 11:43:37;;;;;;;1.97;1.10;;;17.60;99.90;;;;;;5000713;28;20444;-92
2022/07/01 11:46:04;;;;;;;0.87;0.70;;;17.10;99.90;;;;;;4978667;28;20453;-93
2022/07/01 11:48:31;;;;;;;1.03;0.93;;;17.50;99.90;;;;;;4974954;28;20541;-96
2022/07/01 11:50:58;;;;;;;0.77;0.77;;;16.70;99.90;;;;;;4998323;28;20936;-89
2022/07/01 11:53:24;;;;;;;1.00;0.90;;;16.80;99.90;;;;;;4999000;28;20517;-94
2022/07/01 11:55:54;;;;;;;0.83;0.80;;;17.20;99.90;;;;;;4982692;28;20437;-94
2022/07/01 11:58:20;;;;;;;1.17;1.07;;;17.70;99.90;;;;;;4984280;28;20506;-94
2022/07/01 12:00:45;;;;;;;4.43;4.07;;;17.10;99.90;;;;;;4985906;28;20440;-92
2022/07/01 12:03:11;;;;;;;19.07;17.27;;;17.00;99.90;;;;;;4982985;28;20721;-92
2022/07/01 12:05:37;;;;;;;1.00;1.00;;;16.80;99.90;;;;;;4987127;28;20210;-91
2022/07/01 12:08:04;;;;;;;4.87;4.47;;;17.00;99.90;;;;;;4987065;28;20209;-92
2022/07/01 12:10:30;;;;;;;3.57;3.27;;;17.10;99.90;;;;;;4987493;28;20447;-90
2022/07/01 12:12:56;;;;;;;9.93;9.00;;;17.00;99.90;;;;;;5003738;28;20465;-93
2022/07/01 12:15:23;;;;;;;1.53;1.17;;;17.00;99.90;;;;;;4982797;28;20457;-94
2022/07/01 12:17:49;;;;;;;0.80;0.80;;;17.10;99.90;;;;;;4980473;28;20185;-94
2022/07/01 12:20:14;;;;;;;2.03;1.70;;;17.40;99.90;;;;;;4986243;28;20445;-94
2022/07/01 12:22:40;;;;;;;2.30;1.73;;;17.40;99.90;;;;;;4981767;28;20666;-93
2022/07/01 12:25:13;;;;;;;1.83;1.73;;;18.30;99.90;;;;;;4981535;28;20185;-91
2022/07/01 12:27:40;;;;;;;1.87;1.77;;;17.60;99.90;;;;;;5000087;28;20576;-93
2022/07/01 12:30:07;;;;;;;1.80;1.50;;;18.10;99.90;;;;;;4983281;28;20535;-92
2022/07/01 12:32:36;;;;;;;1.27;1.20;;;17.90;99.90;;;;;;4986697;28;20483;-93
2022/07/01 12:37:52;;;;;;;1.80;1.30;;;17.90;99.90;;;;;;4988119;28;20487;-92
2022/07/01 12:40:23;;;;;;;1.57;1.47;;;17.90;99.90;;;;;;4981771;28;20453;-93
2022/07/01 12:42:49;;;;;;;6.83;2.00;;;18.60;99.90;;;;;;4982545;28;20787;-93
2022/07/01 12:45:17;;;;;;;2.03;1.40;;;19.20;99.90;;;;;;4980038;28;20437;-93
2022/07/01 12:47:45;;;;;;;3.27;1.13;;;19.90;99.90;;;;;;4987252;28;20923;-94
2022/07/01 12:50:12;;;;;;;1.30;1.20;;;19.70;99.90;;;;;;5000896;28;20511;-94
2022/07/01 12:52:38;;;;;;;1.60;1.50;;;20.00;99.90;;;;;;5001909;28;20459;-93
2022/07/01 12:55:20;;;;;;;1.70;1.60;;;19.60;99.90;;;;;;4985679;28;20433;-94
2022/07/01 12:57:47;;;;;;;1.10;1.10;;;19.40;99.90;;;;;;4983433;28;20444;-93
2022/07/01 13:00:13;;;;;;;1.20;1.10;;;19.00;99.90;;;;;;4985547;28;20456;-94
2022/07/01 13:02:41;;;;;;;1.37;1.27;;;19.00;99.90;;;;;;4987673;28;20539;-94
2022/07/01 13:05:07;;;;;;;3.60;1.90;;;18.50;99.90;;;;;;4986493;28;20443;-93
2022/07/01 13:07:48;;;;;;;3.03;1.20;;;18.20;99.90;;;;;;4979158;28;20468;-93
2022/07/01 13:10:14;;;;;;;1.47;1.37;;;18.10;99.90;;;;;;4985297;28;20190;-92
2022/07/01 13:12:44;;;;;;;1.80;1.47;;;18.10;99.90;;;;;;4981944;28;20437;-93
2022/07/01 13:15:10;;;;;;;1.40;1.30;;;18.10;99.90;;;;;;4976268;28;20441;-90
2022/07/01 13:17:36;;;;;;;1.43;1.07;;;18.50;99.90;;;;;;4981268;28;21485;-89
2022/07/01 13:20:02;;;;;;;1.00;0.97;;;18.70;99.90;;;;;;4978519;28;20448;-88
2022/07/01 13:22:27;;;;;;;1.00;1.00;;;19.80;99.90;;;;;;4982162;28;20616;-90
2022/07/01 13:24:53;;;;;;;0.80;0.80;;;20.90;99.90;;;;;;4980983;28;20178;-92
2022/07/01 13:27:18;;;;;;;1.20;1.20;;;21.80;99.90;;;;;;4970353;28;20647;-90
2022/07/01 13:29:44;;;;;;;1.20;1.10;;;22.30;99.90;;;;;;4985367;28;20197;-91
2022/07/01 13:32:11;;;;;;;2.17;0.97;;;21.60;99.90;;;;;;4978229;28;20183;-90
2022/07/01 13:34:36;;;;;;;1.10;1.10;;;21.20;99.90;;;;;;4974473;28;20415;-90
2022/07/01 13:37:02;;;;;;;1.37;1.10;;;21.00;99.90;;;;;;4974738;28;20464;-90
2022/07/01 13:39:27;;;;;;;1.63;1.10;;;21.00;99.90;;;;;;4993558;28;20586;-88
2022/07/01 13:41:55;;;;;;;1.30;1.10;;;21.00;99.90;;;;;;4983330;28;20228;-90
2022/07/01 13:44:21;;;;;;;1.40;0.83;;;20.80;99.90;;;;;;4975934;28;20173;-87
2022/07/01 13:46:53;;;;;;;1.40;1.27;;;20.20;99.90;;;;;;4972452;28;20579;-91
2022/07/01 13:49:18;;;;;;;0.90;0.90;;;20.00;99.90;;;;;;4967663;28;20432;-90
2022/07/01 13:51:44;;;;;;;1.97;1.73;;;20.20;99.90;;;;;;4963863;28;20523;-89
2022/07/01 13:54:10;;;;;;;1.80;1.00;;;20.20;99.90;;;;;;4970653;28;20186;-90
2022/07/01 13:56:36;;;;;;;3.07;1.07;;;20.60;99.90;;;;;;4992108;28;20182;-90
2022/07/01 13:59:02;;;;;;;0.97;0.97;;;20.80;99.90;;;;;;4997002;28;20177;-91
2022/07/01 14:01:29;;;;;;;1.00;1.00;;;21.90;99.90;;;;;;4993374;28;20286;-90
2022/07/01 14:03:54;;;;;;;1.47;0.90;;;22.70;99.90;;;;;;4984567;28;20452;-91
2022/07/01 14:06:21;;;;;;;1.80;1.00;;;24.50;99.90;;;;;;4980458;28;20516;-90
2022/07/01 14:08:47;;;;;;;0.90;0.90;;;27.30;99.70;;;;;;4979507;28;20201;-91
2022/07/01 14:11:13;;;;;;;0.70;0.70;;;28.80;96.40;;;;;;4987630;28;20801;-89
2022/07/01 14:13:40;;;;;;;1.00;0.90;;;29.60;90.60;;;;;;4984880;28;20453;-91
2022/07/01 14:16:06;;;;;;;0.77;0.77;;;31.20;90.90;;;;;;4980573;28;20499;-91
2022/07/01 14:18:35;;;;;;;1.93;0.77;;;33.60;83.00;;;;;;4979146;28;20488;-89
2022/07/01 14:21:04;;;;;;;1.00;0.80;;;36.10;76.70;;;;;;4972494;28;20938;-91
2022/07/01 14:23:31;;;;;;;0.70;0.70;;;36.60;66.70;;;;;;4991783;28;21260;-91
2022/07/01 14:25:57;;;;;;;1.20;0.80;;;36.90;66.50;;;;;;4973086;28;21889;-92
2022/07/01 14:28:31;;;;;;;0.60;0.60;;;36.70;67.50;;;;;;4963232;28;20997;-92
2022/07/01 14:30:57;;;;;;;0.80;0.80;;;37.30;63.30;;;;;;4971421;28;20455;-92
2022/07/01 14:33:23;;;;;;;1.40;0.67;;;37.40;58.60;;;;;;4981129;28;20666;-92
2022/07/01 14:35:50;;;;;;;0.70;0.70;;;38.10;60.40;;;;;;4970327;28;20189;-93
2022/07/01 14:38:15;;;;;;;1.30;0.83;;;39.20;56.20;;;;;;4973936;28;21871;-90